createdAt,value
2023-02-11T00:00:25.143Z,114.35
2023-02-11T00:02:53.599Z,125.65
2023-02-11T00:05:23.720Z,116.35
2023-02-11T00:07:52.134Z,112.65
2023-02-11T00:10:24.608Z,108.03
2023-02-11T00:12:53.166Z,112.38
2023-02-11T00:15:22.676Z,135.65
2023-02-11T00:17:51.183Z,100.40
2023-02-11T00:20:22.354Z,102.60
2023-02-11T00:22:52.544Z,104.45
2023-02-11T00:25:25.447Z,89.80
2023-02-11T00:27:55.746Z,67.95
2023-02-11T00:30:24.726Z,76.93
2023-02-11T00:32:53.336Z,83.75
2023-02-11T00:35:25.906Z,75.88
2023-02-11T00:37:58.236Z,84.38
2023-02-11T00:40:26.855Z,98.25
2023-02-11T00:42:55.424Z,113.20
2023-02-11T00:45:23.732Z,125.90
2023-02-11T00:47:58.469Z,106.30
2023-02-11T00:50:26.771Z,113.20
2023-02-11T00:52:56.971Z,107.57
2023-02-11T00:55:25.775Z,124.72
2023-02-11T00:57:54.058Z,102.38
2023-02-11T01:00:22.592Z,163.93
2023-02-11T01:02:51.247Z,149.23
2023-02-11T01:05:20.429Z,136.10
2023-02-11T01:07:49.760Z,81.18
2023-02-11T01:10:20.010Z,123.22
2023-02-11T01:12:48.944Z,159.88
2023-02-11T01:15:20.066Z,125.25
2023-02-11T01:17:49.919Z,136.10
2023-02-11T01:20:21.102Z,119.75
2023-02-11T01:22:50.127Z,94.32
2023-02-11T01:25:20.081Z,96.97
2023-02-11T01:27:49.088Z,91.70
2023-02-11T01:30:17.687Z,92.07
2023-02-11T01:32:46.257Z,94.53
2023-02-11T01:35:17.931Z,102.10
2023-02-11T01:37:50.124Z,113.20
2023-02-11T01:40:21.568Z,134.45
2023-02-11T01:42:51.148Z,178.10
2023-02-11T01:45:53.261Z,158.13
2023-02-11T01:48:26.845Z,114.45
2023-02-11T01:51:02.701Z,101.97
2023-02-11T01:53:49.508Z,77.13
2023-02-11T01:56:38.721Z,137.30
2023-02-11T01:59:13.367Z,118.85
2023-02-11T02:01:47.114Z,81.82
2023-02-11T02:06:54.502Z,79.78
2023-02-11T02:09:31.786Z,75.20
2023-02-11T02:12:02.136Z,82.75
2023-02-11T02:14:31.722Z,70.00
2023-02-11T02:17:01.333Z,71.95
2023-02-11T02:20:02.922Z,78.18
2023-02-11T02:23:16.563Z,77.32
2023-02-11T02:26:30.990Z,110.03
2023-02-11T02:29:43.909Z,91.60
2023-02-11T02:32:40.514Z,66.20
2023-02-11T02:35:21.936Z,80.35
2023-02-11T02:38:02.167Z,98.22
2023-02-11T02:40:34.760Z,81.85
2023-02-11T02:43:08.711Z,65.30
2023-02-11T02:48:27.105Z,60.50
2023-02-11T02:51:09.207Z,61.75
2023-02-11T02:53:50.511Z,76.10
2023-02-11T02:56:27.927Z,82.72
2023-02-11T02:59:16.510Z,129.02
2023-02-11T03:01:58.776Z,98.55
2023-02-11T03:04:37.369Z,65.82
2023-02-11T03:07:15.135Z,70.97
2023-02-11T03:09:51.409Z,66.60
2023-02-11T03:12:22.118Z,83.07
2023-02-11T03:14:52.781Z,84.78
2023-02-11T03:17:24.789Z,77.75
2023-02-11T03:19:55.567Z,87.38
2023-02-11T03:22:29.818Z,96.15
2023-02-11T03:24:59.371Z,98.80
2023-02-11T03:27:32.911Z,105.60
2023-02-11T03:30:07.028Z,83.75
2023-02-11T03:32:40.302Z,109.47
2023-02-11T03:35:16.883Z,138.38
2023-02-11T03:37:51.904Z,74.78
2023-02-11T03:40:23.670Z,78.68
2023-02-11T03:43:00.265Z,120.15
2023-02-11T03:45:29.991Z,129.73
2023-02-11T03:48:03.523Z,119.75
2023-02-11T03:50:36.486Z,93.97
2023-02-11T03:53:06.463Z,117.17
2023-02-11T03:55:38.696Z,107.30
2023-02-11T03:58:07.878Z,85.10
2023-02-11T04:00:39.929Z,91.25
2023-02-11T04:03:08.972Z,90.43
2023-02-11T04:05:39.589Z,90.18
2023-02-11T04:08:08.095Z,79.68
2023-02-11T04:10:36.848Z,89.07
2023-02-11T04:13:05.276Z,52.95
2023-02-11T04:15:33.702Z,37.65
2023-02-11T04:18:02.360Z,34.50
2023-02-11T04:20:30.877Z,40.22
2023-02-11T04:23:00.927Z,34.15
2023-02-11T04:25:29.420Z,26.35
2023-02-11T04:27:57.769Z,31.85
2023-02-11T04:30:29.332Z,33.38
2023-02-11T04:32:57.696Z,32.25
2023-02-11T04:35:26.028Z,31.83
2023-02-11T04:37:54.294Z,34.10
2023-02-11T04:40:23.949Z,37.05
2023-02-11T04:42:52.702Z,32.22
2023-02-11T04:45:21.333Z,43.80
2023-02-11T04:47:49.702Z,30.15
2023-02-11T04:50:18.521Z,36.28
2023-02-11T04:52:47.112Z,28.58
2023-02-11T04:55:15.299Z,29.48
2023-02-11T04:57:45.209Z,29.27
2023-02-11T05:00:14.507Z,27.98
2023-02-11T05:02:42.654Z,29.42
2023-02-11T05:05:10.792Z,26.30
2023-02-11T05:07:39.137Z,24.67
2023-02-11T05:10:07.736Z,27.25
2023-02-11T05:12:36.096Z,23.15
2023-02-11T05:15:06.073Z,28.25
2023-02-11T05:17:34.221Z,28.15
2023-02-11T05:20:02.364Z,23.60
2023-02-11T05:22:30.666Z,27.70
2023-02-11T05:24:58.846Z,29.05
2023-02-11T05:27:26.932Z,30.00
2023-02-11T05:29:55.261Z,25.80
2023-02-11T05:32:24.879Z,24.88
2023-02-11T05:34:53.380Z,29.52
2023-02-11T05:37:21.917Z,29.67
2023-02-11T05:39:50.360Z,23.85
2023-02-11T05:42:18.717Z,28.00
2023-02-11T05:44:48.024Z,28.48
2023-02-11T05:47:20.585Z,26.30
2023-02-11T05:49:50.386Z,26.42
2023-02-11T05:52:18.778Z,24.50
2023-02-11T05:54:47.003Z,26.55
2023-02-11T05:57:15.929Z,30.02
2023-02-11T05:59:44.647Z,23.88
2023-02-11T06:02:14.121Z,22.40
2023-02-11T06:04:44.528Z,27.55
2023-02-11T06:07:14.144Z,28.63
2023-02-11T06:09:42.567Z,29.67
2023-02-11T06:12:10.858Z,33.55
2023-02-11T06:14:39.321Z,28.80
2023-02-11T06:17:07.887Z,21.10
2023-02-11T06:19:36.114Z,27.17
2023-02-11T06:22:04.562Z,26.63
2023-02-11T06:24:54.968Z,24.63
2023-02-11T06:27:23.512Z,27.58
2023-02-11T06:29:52.852Z,25.85
2023-02-11T06:32:42.210Z,25.48
2023-02-11T06:35:12.170Z,18.02
2023-02-11T06:37:41.004Z,24.35
2023-02-11T06:40:12.024Z,20.38
2023-02-11T06:42:40.509Z,22.52
2023-02-11T06:45:11.130Z,23.85
2023-02-11T06:47:39.593Z,20.95
2023-02-11T06:50:09.852Z,19.90
2023-02-11T06:52:38.044Z,26.38
2023-02-11T06:55:06.879Z,24.05
2023-02-11T06:57:36.438Z,28.30
2023-02-11T07:00:05.869Z,20.30
2023-02-11T07:02:34.406Z,17.90
2023-02-11T07:05:02.678Z,22.98
2023-02-11T07:07:34.286Z,20.48
2023-02-11T07:10:04.115Z,21.67
2023-02-11T07:12:33.703Z,18.10
2023-02-11T07:15:04.662Z,20.48
2023-02-11T07:17:33.239Z,15.65
2023-02-11T07:20:01.310Z,18.35
2023-02-11T07:22:29.486Z,19.75
2023-02-11T07:24:57.476Z,22.60
2023-02-11T07:27:26.870Z,22.33
2023-02-11T07:29:55.341Z,19.45
2023-02-11T07:32:24.692Z,20.55
2023-02-11T07:34:54.198Z,22.10
2023-02-11T07:37:22.584Z,21.90
2023-02-11T07:39:50.995Z,20.23
2023-02-11T07:42:19.140Z,18.67
2023-02-11T07:44:50.422Z,20.13
2023-02-11T07:47:19.163Z,18.52
2023-02-11T07:49:49.589Z,20.52
2023-02-11T07:52:17.987Z,23.02
2023-02-11T07:54:46.576Z,22.00
2023-02-11T07:57:14.548Z,25.42
2023-02-11T07:59:42.657Z,16.83
2023-02-11T08:02:10.753Z,18.75
2023-02-11T08:04:38.929Z,20.20
2023-02-11T08:07:08.442Z,16.88
2023-02-11T08:09:36.557Z,18.27
2023-02-11T08:12:09.546Z,19.20
2023-02-11T08:14:38.441Z,16.52
2023-02-11T08:17:06.608Z,18.58
2023-02-11T08:19:35.342Z,16.70
2023-02-11T08:22:03.806Z,17.35
2023-02-11T08:24:33.522Z,13.98
2023-02-11T08:27:01.710Z,14.02
2023-02-11T08:29:29.940Z,15.18
2023-02-11T08:31:58.827Z,18.67
2023-02-11T08:34:27.864Z,14.10
2023-02-11T08:36:56.257Z,16.15
2023-02-11T08:39:24.542Z,15.68
2023-02-11T08:41:56.746Z,17.58
2023-02-11T08:44:26.309Z,15.95
2023-02-11T08:46:55.296Z,16.35
2023-02-11T08:49:23.813Z,13.18
2023-02-11T08:51:52.559Z,17.40
2023-02-11T08:54:21.679Z,16.77
2023-02-11T08:56:53.657Z,16.98
2023-02-11T08:59:22.497Z,13.80
2023-02-11T09:01:51.101Z,12.05
2023-02-11T09:04:20.086Z,18.45
2023-02-11T09:06:49.329Z,16.30
2023-02-11T09:09:18.635Z,14.13
2023-02-11T09:11:46.926Z,17.83
2023-02-11T09:14:20.827Z,17.05
2023-02-11T09:16:49.566Z,15.15
2023-02-11T09:19:18.529Z,14.55
2023-02-11T09:21:46.797Z,17.58
2023-02-11T09:24:15.504Z,12.98
2023-02-11T09:26:45.202Z,20.50
2023-02-11T09:29:14.326Z,14.30
2023-02-11T09:31:43.908Z,14.30
2023-02-11T09:34:13.733Z,14.05
2023-02-11T09:36:42.585Z,12.20
2023-02-11T09:39:16.289Z,14.98
2023-02-11T09:42:03.845Z,17.58
2023-02-11T09:44:34.983Z,19.10
2023-02-11T09:47:07.943Z,19.58
2023-02-11T09:49:42.422Z,16.90
2023-02-11T09:52:18.321Z,19.02
2023-02-11T09:54:56.404Z,18.85
2023-02-11T09:57:33.169Z,19.08
2023-02-11T10:00:02.482Z,18.85
2023-02-11T10:02:45.658Z,17.45
2023-02-11T10:05:33.304Z,15.93
2023-02-11T10:08:14.641Z,14.93
2023-02-11T10:10:53.709Z,15.23
2023-02-11T10:13:47.100Z,14.98
2023-02-11T10:16:31.504Z,15.25
2023-02-11T10:21:58.983Z,13.45
2023-02-11T10:24:29.218Z,15.55
2023-02-11T10:26:57.377Z,14.50
2023-02-11T10:29:38.014Z,17.80
2023-02-11T10:32:16.733Z,17.27
2023-02-11T10:34:46.590Z,16.25
2023-02-11T10:37:15.872Z,13.57
2023-02-11T10:39:45.413Z,20.58
2023-02-11T10:42:17.384Z,17.85
2023-02-11T10:44:55.230Z,21.00
2023-02-11T10:47:28.666Z,18.45
2023-02-11T10:50:03.557Z,18.15
2023-02-11T10:52:32.279Z,15.23
2023-02-11T10:55:03.626Z,18.60
2023-02-11T10:57:37.839Z,14.77
2023-02-11T11:00:24.407Z,18.23
2023-02-11T11:02:58.960Z,17.75
2023-02-11T11:05:32.874Z,14.50
2023-02-11T11:10:44.225Z,21.00
2023-02-11T11:13:27.246Z,16.33
2023-02-11T11:16:25.880Z,19.80
2023-02-11T11:19:16.933Z,16.00
2023-02-11T11:21:49.340Z,15.75
2023-02-11T11:24:20.967Z,15.55
2023-02-11T11:26:52.813Z,16.33
2023-02-11T11:29:24.466Z,20.67
2023-02-11T11:31:57.175Z,17.77
2023-02-11T11:34:31.360Z,20.23
2023-02-11T11:37:11.277Z,19.38
2023-02-11T11:39:42.097Z,14.60
2023-02-11T11:42:27.236Z,15.38
2023-02-11T11:45:03.475Z,19.42
2023-02-11T11:47:42.417Z,20.77
2023-02-11T11:50:27.285Z,19.45
2023-02-11T11:53:04.435Z,20.95
2023-02-11T11:55:39.711Z,21.58
2023-02-11T11:58:16.035Z,18.42
2023-02-11T12:00:56.055Z,21.05
2023-02-11T12:03:57.999Z,19.20
2023-02-11T12:06:39.271Z,22.33
2023-02-11T12:09:19.932Z,20.05
2023-02-11T12:12:08.094Z,19.13
2023-02-11T12:14:45.748Z,22.15
2023-02-11T12:17:27.190Z,21.77
2023-02-11T12:20:26.475Z,20.00
2023-02-11T12:23:11.702Z,16.50
2023-02-11T12:25:53.638Z,17.67
2023-02-11T12:28:33.688Z,21.27
2023-02-11T12:31:29.350Z,24.63
2023-02-11T12:34:16.673Z,19.17
2023-02-11T12:36:56.699Z,23.30
2023-02-11T12:39:39.760Z,17.50
2023-02-11T12:43:08.857Z,18.40
2023-02-11T12:46:02.163Z,16.75
2023-02-11T12:48:50.702Z,14.77
2023-02-11T12:51:35.063Z,19.90
2023-02-11T12:57:02.436Z,20.77
2023-02-11T12:59:50.720Z,19.17
2023-02-11T13:02:29.448Z,18.58
2023-02-11T13:05:01.396Z,13.02
2023-02-11T13:07:35.008Z,18.17
2023-02-11T13:10:08.569Z,17.85
2023-02-11T13:12:56.053Z,16.02
2023-02-11T13:15:30.434Z,17.52
2023-02-11T13:18:06.512Z,18.52
2023-02-11T13:20:42.873Z,17.50
2023-02-11T13:23:24.723Z,17.27
2023-02-11T13:26:00.481Z,14.25
2023-02-11T13:28:42.662Z,15.65
2023-02-11T13:31:16.266Z,18.27
2023-02-11T13:33:49.577Z,16.98
2023-02-11T13:36:26.033Z,16.17
2023-02-11T13:39:05.104Z,16.27
2023-02-11T13:41:40.858Z,17.27
2023-02-11T13:44:29.074Z,21.52
2023-02-11T13:47:02.148Z,15.48
2023-02-11T13:49:37.619Z,14.52
2023-02-11T13:52:22.849Z,17.90
2023-02-11T13:54:53.439Z,15.68
2023-02-11T13:57:32.940Z,21.95
2023-02-11T14:00:02.816Z,17.75
2023-02-11T14:02:52.361Z,16.23
2023-02-11T14:05:50.070Z,16.10
2023-02-11T14:08:44.313Z,19.48
2023-02-11T14:11:45.039Z,14.80
2023-02-11T14:14:25.309Z,13.98
2023-02-11T14:17:31.885Z,19.05
2023-02-11T14:20:05.598Z,20.48
2023-02-11T14:22:45.516Z,15.35
2023-02-11T14:25:24.217Z,18.60
2023-02-11T14:27:59.309Z,16.65
2023-02-11T14:30:47.649Z,14.52
2023-02-11T14:33:52.223Z,19.73
2023-02-11T14:36:51.997Z,16.58
2023-02-11T14:39:33.683Z,17.80
2023-02-11T14:42:04.485Z,16.33
2023-02-11T14:44:35.387Z,14.43
2023-02-11T14:47:04.878Z,18.88
2023-02-11T14:49:37.476Z,17.45
2023-02-11T14:52:17.808Z,18.50
2023-02-11T14:54:51.669Z,17.52
2023-02-11T15:00:03.298Z,16.08
2023-02-11T15:02:40.147Z,18.40
2023-02-11T15:05:23.593Z,18.02
2023-02-11T15:07:58.185Z,20.42
2023-02-11T15:10:34.996Z,20.98
2023-02-11T15:13:05.825Z,16.65
2023-02-11T15:15:36.620Z,14.43
2023-02-11T15:18:06.687Z,15.43
2023-02-11T15:20:37.200Z,16.20
2023-02-11T15:23:10.754Z,17.10
2023-02-11T15:25:46.459Z,19.45
2023-02-11T15:28:23.170Z,17.17
2023-02-11T15:30:59.099Z,17.60
2023-02-11T15:33:32.546Z,14.88
2023-02-11T15:36:02.916Z,23.92
2023-02-11T15:38:32.951Z,20.98
2023-02-11T15:41:02.379Z,17.90
2023-02-11T15:43:45.245Z,17.42
2023-02-11T15:46:17.812Z,16.60
2023-02-11T15:48:48.772Z,19.13
2023-02-11T15:51:25.453Z,18.83
2023-02-11T15:53:59.176Z,22.30
2023-02-11T15:56:31.098Z,24.25
2023-02-11T15:59:01.409Z,20.98
2023-02-11T16:01:34.013Z,18.65
2023-02-11T16:04:04.027Z,18.75
2023-02-11T16:06:38.679Z,18.98
2023-02-11T16:09:25.327Z,16.92
2023-02-11T16:11:58.246Z,22.23
2023-02-11T16:14:32.416Z,18.23
2023-02-11T16:17:04.004Z,20.55
2023-02-11T16:19:34.171Z,19.13
2023-02-11T16:22:08.467Z,21.27
2023-02-11T16:24:41.072Z,22.30
2023-02-11T16:27:22.581Z,20.35
2023-02-11T16:29:52.254Z,21.25
2023-02-11T16:32:21.986Z,19.90
2023-02-11T16:34:50.159Z,19.73
2023-02-11T16:37:18.553Z,20.60
2023-02-11T16:39:48.147Z,21.85
2023-02-11T16:42:16.231Z,19.35
2023-02-11T16:44:44.283Z,20.02
2023-02-11T16:47:21.086Z,22.75
2023-02-11T16:49:51.751Z,22.17
2023-02-11T16:52:22.317Z,17.17
2023-02-11T16:54:53.740Z,20.70
2023-02-11T16:57:30.027Z,19.05
2023-02-11T17:00:01.119Z,19.45
2023-02-11T17:02:32.264Z,21.52
2023-02-11T17:05:02.790Z,19.75
2023-02-11T17:07:33.086Z,20.17
2023-02-11T17:10:03.593Z,18.45
2023-02-11T17:12:32.104Z,20.02
2023-02-11T17:15:00.580Z,20.45
2023-02-11T17:17:30.124Z,20.70
2023-02-11T17:19:58.396Z,23.15
2023-02-11T17:22:26.638Z,23.48
2023-02-11T17:24:55.990Z,16.70
2023-02-11T17:27:26.125Z,18.23
2023-02-11T17:29:54.289Z,20.02
2023-02-11T17:32:22.618Z,24.02
2023-02-11T17:34:51.235Z,20.40
2023-02-11T17:37:19.840Z,25.25
2023-02-11T17:39:50.080Z,20.02
2023-02-11T17:42:19.378Z,19.83
2023-02-11T17:44:49.226Z,19.95
2023-02-11T17:47:19.518Z,25.27
2023-02-11T17:49:47.732Z,23.45
2023-02-11T17:52:16.793Z,23.08
2023-02-11T17:54:45.442Z,24.13
2023-02-11T17:57:14.761Z,20.60
2023-02-11T17:59:44.336Z,21.38
2023-02-11T18:02:14.387Z,27.88
2023-02-11T18:04:42.677Z,21.88
2023-02-11T18:07:11.165Z,22.35
2023-02-11T18:09:40.631Z,21.45
2023-02-11T18:12:10.899Z,19.55
2023-02-11T18:14:40.448Z,23.55
2023-02-11T18:17:09.360Z,23.67
2023-02-11T18:20:19.134Z,30.50
2023-02-11T18:26:38.895Z,26.77
2023-02-11T18:29:08.158Z,22.08
2023-02-11T18:31:36.889Z,23.65
2023-02-11T18:34:06.150Z,24.92
2023-02-11T18:36:36.216Z,21.05
2023-02-11T18:39:05.157Z,31.50
2023-02-11T18:41:33.828Z,20.90
2023-02-11T18:44:04.895Z,24.08
2023-02-11T18:46:33.281Z,25.25
2023-02-11T18:49:02.085Z,23.65
2023-02-11T18:51:32.710Z,24.17
2023-02-11T18:54:02.602Z,29.77
2023-02-11T18:56:32.734Z,21.92
2023-02-11T18:59:02.791Z,24.70
2023-02-11T19:01:34.300Z,24.73
2023-02-11T19:04:05.126Z,25.95
2023-02-11T19:06:35.292Z,24.25
2023-02-11T19:09:09.877Z,27.23
2023-02-11T19:11:50.430Z,25.77
2023-02-11T19:14:22.119Z,21.45
2023-02-11T19:16:51.504Z,24.25
2023-02-11T19:19:24.428Z,27.70
2023-02-11T19:21:53.080Z,23.65
2023-02-11T19:24:24.072Z,21.23
2023-02-11T19:26:55.611Z,30.00
2023-02-11T19:29:23.989Z,20.80
2023-02-11T19:31:52.870Z,23.90
2023-02-11T19:34:22.549Z,24.52
2023-02-11T19:36:52.316Z,22.77
2023-02-11T19:39:21.029Z,26.63
2023-02-11T19:41:50.643Z,22.55
2023-02-11T19:44:18.818Z,22.90
2023-02-11T19:46:48.711Z,27.80
2023-02-11T19:49:23.197Z,21.52
2023-02-11T19:51:51.979Z,25.55
2023-02-11T19:54:20.378Z,24.08
2023-02-11T19:56:49.146Z,24.10
2023-02-11T19:59:18.717Z,24.60
2023-02-11T20:01:49.335Z,23.83
2023-02-11T20:04:18.092Z,26.13
2023-02-11T20:06:48.172Z,21.77
2023-02-11T20:09:18.446Z,23.45
2023-02-11T20:11:49.445Z,24.50
2023-02-11T20:14:19.387Z,21.95
2023-02-11T20:16:49.768Z,24.85
2023-02-11T20:19:20.175Z,25.58
2023-02-11T20:21:50.032Z,23.30
2023-02-11T20:24:19.745Z,23.45
2023-02-11T20:26:49.570Z,27.60
2023-02-11T20:29:19.628Z,23.02
2023-02-11T20:31:48.086Z,21.60
2023-02-11T20:34:17.655Z,21.40
2023-02-11T20:36:52.094Z,22.45
2023-02-11T20:39:22.394Z,25.60
2023-02-11T20:41:51.641Z,27.48
2023-02-11T20:44:22.913Z,27.17
2023-02-11T20:46:53.908Z,22.60
2023-02-11T20:49:24.163Z,22.58
2023-02-11T20:51:53.875Z,21.58
2023-02-11T20:54:24.027Z,25.05
2023-02-11T20:56:53.947Z,22.00
2023-02-11T20:59:25.669Z,28.55
2023-02-11T21:01:56.991Z,26.75
2023-02-11T21:04:27.698Z,21.08
2023-02-11T21:06:57.910Z,22.00
2023-02-11T21:09:28.716Z,21.55
2023-02-11T21:11:57.048Z,21.75
2023-02-11T21:14:27.991Z,18.00
2023-02-11T21:16:56.089Z,26.30
2023-02-11T21:19:24.260Z,23.02
2023-02-11T21:21:52.723Z,24.10
2023-02-11T21:24:20.803Z,24.55
2023-02-11T21:26:49.201Z,25.67
2023-02-11T21:29:17.228Z,28.30
2023-02-11T21:31:46.960Z,24.38
2023-02-11T21:34:16.189Z,26.67
2023-02-11T21:36:47.232Z,23.83
2023-02-11T21:39:15.328Z,22.20
2023-02-11T21:41:43.462Z,23.73
2023-02-11T21:44:11.840Z,29.33
2023-02-11T21:46:40.241Z,21.55
2023-02-11T21:49:10.468Z,27.88
2023-02-11T21:51:39.255Z,27.48
2023-02-11T21:54:07.509Z,28.60
2023-02-11T21:56:36.649Z,31.63
2023-02-11T21:59:04.941Z,24.15
2023-02-11T22:01:35.480Z,22.73
2023-02-11T22:04:03.812Z,27.27
2023-02-11T22:06:36.091Z,25.20
2023-02-11T22:09:07.214Z,25.35
2023-02-11T22:11:35.769Z,26.85
2023-02-11T22:14:04.415Z,23.77
2023-02-11T22:16:35.481Z,28.05
2023-02-11T22:19:20.599Z,22.83
2023-02-11T22:22:17.092Z,27.92
2023-02-11T22:24:47.894Z,23.00
2023-02-11T22:27:19.874Z,26.02
2023-02-11T22:29:49.294Z,20.42
2023-02-11T22:32:17.948Z,30.77
2023-02-11T22:34:46.217Z,25.67
2023-02-11T22:37:16.029Z,24.02
2023-02-11T22:39:44.265Z,26.08
2023-02-11T22:42:12.958Z,32.30
2023-02-11T22:44:41.523Z,29.92
2023-02-11T22:47:10.435Z,28.45
2023-02-11T22:49:40.509Z,28.88
2023-02-11T22:52:09.290Z,27.50
2023-02-11T22:54:40.293Z,29.20
2023-02-11T22:57:09.001Z,26.08
2023-02-11T22:59:37.295Z,28.33
2023-02-11T23:02:05.661Z,26.65
2023-02-11T23:04:34.724Z,31.33
2023-02-11T23:07:03.472Z,26.80
2023-02-11T23:09:32.096Z,22.88
2023-02-11T23:12:02.947Z,26.55
2023-02-11T23:14:32.446Z,30.48
2023-02-11T23:17:00.652Z,32.75
2023-02-11T23:19:28.885Z,43.63
2023-02-11T23:21:57.623Z,28.40
2023-02-11T23:24:26.383Z,43.17
2023-02-11T23:26:55.076Z,35.83
2023-02-11T23:29:25.206Z,60.17
2023-02-11T23:31:55.836Z,77.38
2023-02-11T23:34:26.791Z,61.60
2023-02-11T23:36:55.910Z,44.88
2023-02-11T23:39:25.884Z,54.88
2023-02-11T23:41:58.899Z,56.58
2023-02-11T23:44:30.438Z,56.40
2023-02-11T23:46:59.617Z,58.28
2023-02-11T23:49:28.138Z,23.65
2023-02-11T23:51:56.418Z,40.75
2023-02-11T23:54:24.783Z,42.72
2023-02-11T23:56:54.079Z,70.70
2023-02-11T23:59:22.762Z,80.30
